Time;durP1;ratioP1;P1;durP2;ratioP2;P2;SDS_P1;SDS_P2;PMS_P1;PMS_P2;Temp;Humidity;BMP_temperature;BMP_pressure;BME280_temperature;BME280_humidity;BME280_pressure;Samples;Min_cycle;Max_cycle;Signal;HPM_P1;HPM_P2
2024/02/16 00:00:17;;;;;;;4.75;2.30;;;;;;;;;;5027948;28;20055;-62
2024/02/16 00:02:46;;;;;;;4.93;2.97;;;;;;;;;;5026204;28;20402;-62
2024/02/16 00:05:14;;;;;;;5.43;3.10;;;;;;;;;;5027112;28;20045;-66
2024/02/16 00:07:43;;;;;;;4.40;2.58;;;;;;;;;;5026106;28;20499;-63
2024/02/16 00:10:13;;;;;;;5.90;2.60;;;;;;;;;;5027311;28;20041;-67
2024/02/16 00:12:41;;;;;;;6.25;2.50;;;;;;;;;;5028370;28;20045;-62
2024/02/16 00:15:11;;;;;;;3.55;2.22;;;;;;;;;;5028876;28;20140;-62
2024/02/16 00:17:41;;;;;;;2.83;2.33;;;;;;;;;;5028356;28;20092;-63
2024/02/16 00:20:12;;;;;;;4.03;2.60;;;;;;;;;;5031395;28;20042;-64
2024/02/16 00:22:41;;;;;;;3.78;2.22;;;;;;;;;;5028171;28;20136;-63
2024/02/16 00:25:09;;;;;;;4.28;2.22;;;;;;;;;;5028374;28;20049;-62
2024/02/16 00:27:38;;;;;;;2.65;2.22;;;;;;;;;;5028210;28;20127;-64
2024/02/16 00:30:10;;;;;;;3.25;2.15;;;;;;;;;;5031224;28;20045;-63
2024/02/16 00:32:38;;;;;;;2.60;2.20;;;;;;;;;;5027849;28;20053;-63
2024/02/16 00:35:08;;;;;;;3.17;2.20;;;;;;;;;;5027432;28;20068;-64
2024/02/16 00:37:37;;;;;;;4.97;2.58;;;;;;;;;;5023091;28;20609;-62
2024/02/16 00:40:07;;;;;;;5.35;2.97;;;;;;;;;;5028495;28;20077;-63
2024/02/16 00:42:35;;;;;;;4.40;2.80;;;;;;;;;;5018004;28;20396;-66
2024/02/16 00:45:04;;;;;;;4.82;2.72;;;;;;;;;;5028190;28;20049;-63
2024/02/16 00:47:33;;;;;;;5.60;2.92;;;;;;;;;;5030762;28;20051;-64
2024/02/16 00:50:01;;;;;;;6.70;2.70;;;;;;;;;;5031424;28;20068;-62
2024/02/16 00:52:31;;;;;;;5.72;2.65;;;;;;;;;;5024387;28;20050;-63
2024/02/16 00:54:59;;;;;;;5.70;2.67;;;;;;;;;;5031764;28;20119;-63
2024/02/16 00:57:27;;;;;;;4.32;2.85;;;;;;;;;;5031601;28;20123;-63
2024/02/16 00:59:56;;;;;;;3.75;2.78;;;;;;;;;;5031573;28;20052;-64
2024/02/16 01:02:25;;;;;;;4.30;2.70;;;;;;;;;;5029157;28;20133;-62
2024/02/16 01:05:01;;;;;;;3.53;2.50;;;;;;;;;;5031960;28;20107;-62
2024/02/16 01:07:32;;;;;;;4.07;2.35;;;;;;;;;;5031316;28;20045;-63
2024/02/16 01:10:03;;;;;;;4.07;2.35;;;;;;;;;;5027908;28;20042;-64
2024/02/16 01:12:31;;;;;;;2.25;2.05;;;;;;;;;;5031327;28;20052;-62
2024/02/16 01:15:00;;;;;;;2.63;2.10;;;;;;;;;;5029700;28;20053;-66
2024/02/16 01:17:29;;;;;;;3.35;2.72;;;;;;;;;;5034255;28;20048;-63
2024/02/16 01:19:58;;;;;;;3.90;2.40;;;;;;;;;;5030893;28;20053;-63
2024/02/16 01:22:29;;;;;;;4.70;2.90;;;;;;;;;;5031253;28;20091;-63
2024/02/16 01:24:58;;;;;;;2.53;2.15;;;;;;;;;;5030952;28;20049;-62
2024/02/16 01:27:28;;;;;;;6.10;2.55;;;;;;;;;;5031653;28;20045;-62
2024/02/16 01:29:56;;;;;;;5.50;2.63;;;;;;;;;;5036185;28;20403;-64
2024/02/16 01:32:25;;;;;;;7.15;2.90;;;;;;;;;;5031256;28;20045;-64
2024/02/16 01:34:53;;;;;;;4.70;2.58;;;;;;;;;;5030194;28;20053;-65
2024/02/16 01:37:22;;;;;;;3.40;2.38;;;;;;;;;;5031522;28;20556;-63
2024/02/16 01:39:50;;;;;;;4.60;3.00;;;;;;;;;;5030695;28;20056;-62
2024/02/16 01:42:20;;;;;;;4.90;3.17;;;;;;;;;;5029697;28;20045;-63
2024/02/16 01:44:48;;;;;;;3.55;2.50;;;;;;;;;;5030166;28;20052;-63
2024/02/16 01:47:17;;;;;;;4.97;2.70;;;;;;;;;;5031210;28;20438;-63
2024/02/16 01:49:45;;;;;;;5.22;2.97;;;;;;;;;;5029679;28;20045;-66
2024/02/16 01:52:14;;;;;;;5.03;3.30;;;;;;;;;;5031429;28;20076;-62
2024/02/16 01:54:42;;;;;;;6.30;2.70;;;;;;;;;;5030281;28;20478;-65
2024/02/16 01:57:12;;;;;;;4.28;2.75;;;;;;;;;;5029892;28;20073;-64
2024/02/16 01:59:42;;;;;;;6.35;2.90;;;;;;;;;;5032572;28;20415;-64
2024/02/16 02:02:10;;;;;;;4.80;2.72;;;;;;;;;;5032183;28;20502;-63
2024/02/16 02:04:39;;;;;;;4.10;2.78;;;;;;;;;;5030281;28;20514;-63
2024/02/16 02:07:13;;;;;;;3.15;2.63;;;;;;;;;;5030805;28;20058;-62
2024/02/16 02:09:41;;;;;;;2.35;2.00;;;;;;;;;;5031119;28;20056;-64
2024/02/16 02:12:10;;;;;;;5.13;2.90;;;;;;;;;;5028227;28;20045;-63
2024/02/16 02:14:38;;;;;;;6.13;3.03;;;;;;;;;;5029672;28;20049;-64
2024/02/16 02:17:08;;;;;;;3.30;2.45;;;;;;;;;;5030934;28;20498;-62
2024/02/16 02:19:37;;;;;;;3.63;2.67;;;;;;;;;;5030427;28;20052;-63
2024/02/16 02:22:05;;;;;;;7.25;2.65;;;;;;;;;;5031013;28;20053;-63
2024/02/16 02:24:35;;;;;;;3.08;2.50;;;;;;;;;;5029674;28;20053;-65
2024/02/16 02:27:04;;;;;;;4.00;2.53;;;;;;;;;;5029477;28;20124;-62
2024/02/16 02:29:33;;;;;;;4.72;2.90;;;;;;;;;;5029838;28;20041;-62
2024/02/16 02:32:01;;;;;;;6.25;2.83;;;;;;;;;;5030371;28;20057;-63
2024/02/16 02:34:30;;;;;;;5.15;2.90;;;;;;;;;;5035329;28;20048;-63
2024/02/16 02:36:58;;;;;;;3.38;2.58;;;;;;;;;;5030129;28;20263;-64
2024/02/16 02:39:27;;;;;;;5.28;3.03;;;;;;;;;;5029414;28;20142;-63
2024/02/16 02:41:57;;;;;;;5.72;3.17;;;;;;;;;;5027014;28;20061;-62
2024/02/16 02:44:26;;;;;;;5.72;2.88;;;;;;;;;;5028922;28;20490;-63
2024/02/16 02:46:54;;;;;;;7.07;2.83;;;;;;;;;;5029718;28;20124;-65
2024/02/16 02:49:22;;;;;;;6.38;3.28;;;;;;;;;;5028441;28;20063;-64
2024/02/16 02:51:51;;;;;;;7.20;3.70;;;;;;;;;;5029048;28;20056;-64
2024/02/16 02:54:19;;;;;;;5.95;2.78;;;;;;;;;;5030650;28;20438;-65
2024/02/16 02:56:48;;;;;;;7.28;3.25;;;;;;;;;;5025894;28;20083;-63
2024/02/16 02:59:18;;;;;;;5.53;3.30;;;;;;;;;;5027647;28;20479;-63
2024/02/16 03:01:46;;;;;;;5.40;3.35;;;;;;;;;;5026351;28;20092;-63
2024/02/16 03:04:14;;;;;;;5.63;3.30;;;;;;;;;;5027948;28;20060;-63
2024/02/16 03:06:44;;;;;;;4.80;2.97;;;;;;;;;;5030347;28;20528;-60
2024/02/16 03:09:13;;;;;;;5.43;3.08;;;;;;;;;;5027895;28;20137;-63
2024/02/16 03:11:41;;;;;;;6.55;3.10;;;;;;;;;;5025953;28;20050;-63
2024/02/16 03:14:10;;;;;;;4.38;2.80;;;;;;;;;;5028466;28;20484;-63
2024/02/16 03:16:39;;;;;;;4.63;3.30;;;;;;;;;;5029689;28;20045;-68
2024/02/16 03:19:08;;;;;;;4.35;2.97;;;;;;;;;;5028613;28;20054;-63
2024/02/16 03:21:37;;;;;;;6.35;3.38;;;;;;;;;;5029394;28;20049;-65
2024/02/16 03:24:06;;;;;;;5.47;3.15;;;;;;;;;;5020307;28;20052;-65
2024/02/16 03:26:34;;;;;;;7.30;3.22;;;;;;;;;;5028947;28;20498;-63
2024/02/16 03:29:03;;;;;;;5.78;3.28;;;;;;;;;;5028291;28;20041;-63
2024/02/16 03:31:33;;;;;;;9.32;3.53;;;;;;;;;;5027964;28;20124;-63
2024/02/16 03:34:03;;;;;;;5.68;3.10;;;;;;;;;;5028785;28;20038;-66
2024/02/16 03:36:32;;;;;;;5.35;2.72;;;;;;;;;;5031250;28;20050;-62
2024/02/16 03:39:00;;;;;;;5.63;2.65;;;;;;;;;;5027712;28;20419;-64
2024/02/16 03:41:28;;;;;;;4.07;2.80;;;;;;;;;;5027885;28;20510;-65
2024/02/16 03:43:58;;;;;;;5.55;3.00;;;;;;;;;;5029531;28;20049;-62
2024/02/16 03:46:26;;;;;;;7.43;2.92;;;;;;;;;;5028197;28;20048;-64
2024/02/16 03:48:55;;;;;;;4.90;2.42;;;;;;;;;;5027121;28;20049;-65
2024/02/16 03:51:25;;;;;;;4.80;2.90;;;;;;;;;;5028899;28;20056;-65
2024/02/16 03:53:53;;;;;;;4.05;2.42;;;;;;;;;;5027631;28;20057;-64
2024/02/16 03:56:21;;;;;;;4.35;2.80;;;;;;;;;;5039392;28;20056;-63
2024/02/16 03:58:50;;;;;;;5.80;2.90;;;;;;;;;;5027912;28;20392;-63
2024/02/16 04:01:18;;;;;;;5.97;2.95;;;;;;;;;;5028490;28;20050;-64
2024/02/16 04:03:47;;;;;;;3.17;2.40;;;;;;;;;;5028222;28;20123;-63
2024/02/16 04:06:15;;;;;;;3.42;2.40;;;;;;;;;;5031226;28;20061;-63
2024/02/16 04:08:45;;;;;;;6.13;2.85;;;;;;;;;;5024435;28;20046;-63
2024/02/16 04:11:15;;;;;;;3.30;2.42;;;;;;;;;;5028898;28;20073;-62
2024/02/16 04:13:44;;;;;;;4.88;2.63;;;;;;;;;;5028043;28;20308;-64
2024/02/16 04:16:12;;;;;;;6.57;2.95;;;;;;;;;;5027593;28;20188;-63
2024/02/16 04:18:40;;;;;;;4.10;2.72;;;;;;;;;;5027540;28;20045;-64
2024/02/16 04:21:09;;;;;;;5.50;2.88;;;;;;;;;;5031296;28;20072;-63
2024/02/16 04:23:37;;;;;;;7.43;3.45;;;;;;;;;;5033637;28;20048;-63
2024/02/16 04:26:07;;;;;;;3.97;2.70;;;;;;;;;;5034652;28;20313;-63
2024/02/16 04:28:36;;;;;;;3.80;2.75;;;;;;;;;;5038324;28;20046;-63
2024/02/16 04:31:05;;;;;;;4.22;2.60;;;;;;;;;;5034562;28;20115;-63
2024/02/16 04:33:33;;;;;;;6.57;2.55;;;;;;;;;;5034697;28;20076;-63
2024/02/16 04:36:02;;;;;;;5.47;2.85;;;;;;;;;;5035645;28;20049;-62
2024/02/16 04:38:30;;;;;;;4.10;2.60;;;;;;;;;;5034166;28;20482;-64
2024/02/16 04:40:59;;;;;;;5.07;2.75;;;;;;;;;;5033786;28;20092;-64
2024/02/16 04:43:29;;;;;;;6.50;3.15;;;;;;;;;;5034080;28;20135;-63
2024/02/16 04:45:57;;;;;;;5.05;3.08;;;;;;;;;;5034699;28;20136;-62
2024/02/16 04:48:26;;;;;;;4.00;2.63;;;;;;;;;;5038435;28;20053;-63
2024/02/16 04:50:54;;;;;;;7.75;3.15;;;;;;;;;;5034635;28;20050;-63
2024/02/16 04:53:23;;;;;;;5.03;3.05;;;;;;;;;;5033043;28;20453;-63
2024/02/16 04:55:51;;;;;;;3.60;2.50;;;;;;;;;;5033710;28;20053;-63
2024/02/16 04:58:19;;;;;;;4.63;2.90;;;;;;;;;;5033775;28;20049;-63
2024/02/16 05:00:49;;;;;;;3.70;2.67;;;;;;;;;;5032740;28;20057;-64
2024/02/16 05:03:18;;;;;;;4.50;2.63;;;;;;;;;;5028741;28;20546;-63
2024/02/16 05:05:46;;;;;;;5.15;3.03;;;;;;;;;;5034029;28;20242;-63
2024/02/16 05:08:14;;;;;;;3.35;2.33;;;;;;;;;;5034535;28;20506;-64
2024/02/16 05:10:43;;;;;;;6.95;3.20;;;;;;;;;;5034539;28;20045;-62
2024/02/16 05:13:11;;;;;;;4.63;2.78;;;;;;;;;;5031627;28;20072;-63
2024/02/16 05:15:40;;;;;;;5.25;2.80;;;;;;;;;;5034415;28;20564;-63
2024/02/16 05:18:12;;;;;;;6.57;2.90;;;;;;;;;;5030540;28;20479;-63
2024/02/16 05:20:41;;;;;;;5.40;3.03;;;;;;;;;;5033802;28;20052;-63
2024/02/16 05:23:10;;;;;;;4.45;2.97;;;;;;;;;;5033588;28;20150;-63
2024/02/16 05:25:39;;;;;;;4.53;2.90;;;;;;;;;;5037542;28;20049;-63
2024/02/16 05:28:07;;;;;;;4.25;2.60;;;;;;;;;;5034161;28;20132;-66
2024/02/16 05:30:35;;;;;;;6.75;2.45;;;;;;;;;;5033157;28;20088;-65
2024/02/16 05:33:04;;;;;;;3.78;2.28;;;;;;;;;;5030095;28;20060;-63
2024/02/16 05:35:34;;;;;;;7.47;2.95;;;;;;;;;;5033300;28;20099;-63
2024/02/16 05:38:07;;;;;;;3.60;2.40;;;;;;;;;;5031426;28;20104;-63
2024/02/16 05:40:53;;;;;;;3.50;2.53;;;;;;;;;;5029926;28;20517;-63
2024/02/16 05:43:22;;;;;;;3.40;2.50;;;;;;;;;;5025261;28;20549;-63
2024/02/16 05:45:51;;;;;;;6.55;3.00;;;;;;;;;;5029828;28;20570;-63
2024/02/16 05:48:19;;;;;;;4.15;2.70;;;;;;;;;;5031333;28;20115;-62
2024/02/16 05:50:50;;;;;;;5.55;2.70;;;;;;;;;;5030170;28;20053;-63
2024/02/16 05:53:19;;;;;;;5.32;2.95;;;;;;;;;;5030271;28;20118;-64
2024/02/16 05:55:47;;;;;;;5.05;2.65;;;;;;;;;;5030717;28;20045;-64
2024/02/16 05:58:16;;;;;;;3.72;2.22;;;;;;;;;;5030842;28;20049;-63
2024/02/16 06:00:47;;;;;;;4.82;2.42;;;;;;;;;;5028746;28;20045;-63
2024/02/16 06:03:15;;;;;;;2.63;2.25;;;;;;;;;;5028825;28;20061;-64
2024/02/16 06:05:44;;;;;;;3.67;2.70;;;;;;;;;;5028410;28;20149;-65
2024/02/16 06:08:15;;;;;;;4.95;2.53;;;;;;;;;;5030485;28;20050;-63
2024/02/16 06:10:44;;;;;;;4.10;2.80;;;;;;;;;;5027867;28;20123;-63
2024/02/16 06:13:12;;;;;;;4.68;2.70;;;;;;;;;;5029953;28;20123;-64
2024/02/16 06:15:41;;;;;;;4.78;2.58;;;;;;;;;;5028272;28;20049;-64
2024/02/16 06:18:09;;;;;;;4.70;2.70;;;;;;;;;;5029845;28;20156;-62
2024/02/16 06:20:38;;;;;;;4.10;2.53;;;;;;;;;;5029694;28;20575;-63
2024/02/16 06:23:07;;;;;;;5.18;2.35;;;;;;;;;;5028462;28;20146;-63
2024/02/16 06:25:37;;;;;;;5.00;2.67;;;;;;;;;;5031054;28;20049;-63
2024/02/16 06:28:06;;;;;;;3.75;2.33;;;;;;;;;;5029828;28;20046;-63
2024/02/16 06:30:34;;;;;;;3.88;2.33;;;;;;;;;;5028607;28;20496;-64
2024/02/16 06:33:03;;;;;;;5.10;2.60;;;;;;;;;;5029068;28;20041;-65
2024/02/16 06:35:31;;;;;;;5.68;2.90;;;;;;;;;;5030161;28;20386;-63
2024/02/16 06:38:00;;;;;;;4.65;2.85;;;;;;;;;;5029715;28;20061;-64
2024/02/16 06:40:29;;;;;;;4.40;2.35;;;;;;;;;;5029919;28;20053;-63
2024/02/16 06:42:59;;;;;;;4.30;2.40;;;;;;;;;;5028060;28;20115;-63
2024/02/16 06:45:29;;;;;;;5.07;3.08;;;;;;;;;;5032667;28;20346;-64
2024/02/16 06:47:58;;;;;;;3.97;2.47;;;;;;;;;;5029726;28;20053;-64
2024/02/16 06:50:26;;;;;;;3.40;2.53;;;;;;;;;;5028978;28;20311;-63
2024/02/16 06:52:55;;;;;;;3.75;2.20;;;;;;;;;;5030153;28;20103;-63
2024/02/16 06:55:23;;;;;;;5.68;2.58;;;;;;;;;;5030913;28;20049;-68
2024/02/16 06:57:52;;;;;;;3.95;2.20;;;;;;;;;;5028874;28;20053;-64
2024/02/16 07:00:22;;;;;;;3.65;2.45;;;;;;;;;;5029798;28;20053;-63
2024/02/16 07:02:51;;;;;;;3.70;2.35;;;;;;;;;;5029652;28;20042;-63
2024/02/16 07:05:19;;;;;;;4.03;2.00;;;;;;;;;;5029392;28;20083;-61
2024/02/16 07:07:48;;;;;;;3.67;2.53;;;;;;;;;;5027549;28;20533;-65
2024/02/16 07:10:17;;;;;;;4.10;2.50;;;;;;;;;;5023150;28;20046;-63
2024/02/16 07:12:46;;;;;;;4.18;2.65;;;;;;;;;;5027748;28;20037;-64
2024/02/16 07:15:15;;;;;;;3.25;2.28;;;;;;;;;;5029832;28;20132;-62
2024/02/16 07:17:44;;;;;;;3.35;2.33;;;;;;;;;;5019217;28;20053;-64
2024/02/16 07:20:15;;;;;;;2.78;2.25;;;;;;;;;;5028384;28;20056;-63
2024/02/16 07:22:46;;;;;;;4.28;2.35;;;;;;;;;;5027830;28;20045;-63
2024/02/16 07:25:14;;;;;;;3.88;2.50;;;;;;;;;;5029188;28;20417;-63
2024/02/16 07:27:42;;;;;;;6.18;2.33;;;;;;;;;;5029479;28;20072;-63
2024/02/16 07:30:13;;;;;;;3.85;2.20;;;;;;;;;;5029302;28;20049;-63
2024/02/16 07:32:50;;;;;;;3.05;2.47;;;;;;;;;;5024711;28;20399;-65
2024/02/16 07:35:18;;;;;;;3.25;2.22;;;;;;;;;;5035611;28;20056;-63
2024/02/16 07:37:51;;;;;;;8.18;2.65;;;;;;;;;;5028805;28;20050;-63
2024/02/16 07:40:20;;;;;;;5.15;2.50;;;;;;;;;;5028622;28;20050;-66
2024/02/16 07:42:48;;;;;;;4.95;2.75;;;;;;;;;;5028977;28;20053;-64
2024/02/16 07:45:17;;;;;;;7.43;2.90;;;;;;;;;;5027935;28;20049;-63
2024/02/16 07:47:47;;;;;;;4.53;2.60;;;;;;;;;;5025266;28;20661;-63
2024/02/16 07:50:20;;;;;;;6.78;2.67;;;;;;;;;;5027877;28;20119;-63
2024/02/16 07:52:48;;;;;;;11.07;2.75;;;;;;;;;;5025338;28;20407;-63
2024/02/16 07:55:18;;;;;;;7.00;2.78;;;;;;;;;;5027614;28;20099;-63
2024/02/16 07:57:46;;;;;;;3.63;2.72;;;;;;;;;;5024063;28;20038;-63
2024/02/16 08:00:16;;;;;;;3.35;2.38;;;;;;;;;;5025889;28;20521;-65
2024/02/16 08:02:44;;;;;;;4.78;2.97;;;;;;;;;;5026107;28;20080;-66
2024/02/16 08:05:15;;;;;;;4.57;2.50;;;;;;;;;;5021229;28;20049;-63
2024/02/16 08:07:44;;;;;;;4.00;2.67;;;;;;;;;;5025186;28;20057;-64
2024/02/16 08:10:12;;;;;;;3.65;2.50;;;;;;;;;;5021333;28;20628;-64
2024/02/16 08:12:41;;;;;;;5.35;2.50;;;;;;;;;;5026533;28;20057;-63
2024/02/16 08:15:10;;;;;;;5.28;2.40;;;;;;;;;;5027997;28;20052;-60
2024/02/16 08:17:39;;;;;;;6.63;2.70;;;;;;;;;;5026411;28;20049;-63
2024/02/16 08:20:08;;;;;;;6.85;2.35;;;;;;;;;;5023426;28;20037;-61
2024/02/16 08:22:41;;;;;;;4.63;2.40;;;;;;;;;;5024325;28;20068;-62
2024/02/16 08:25:09;;;;;;;3.78;2.45;;;;;;;;;;5023946;28;20056;-64
2024/02/16 08:27:38;;;;;;;6.00;2.90;;;;;;;;;;5028744;28;20071;-64
2024/02/16 08:30:08;;;;;;;4.72;2.13;;;;;;;;;;5025447;28;20045;-62
2024/02/16 08:32:37;;;;;;;5.00;2.22;;;;;;;;;;5022366;28;20057;-64
2024/02/16 08:35:06;;;;;;;6.00;2.78;;;;;;;;;;5023473;28;20053;-64
2024/02/16 08:37:35;;;;;;;5.15;2.33;;;;;;;;;;5027275;28;20046;-62
2024/02/16 08:40:05;;;;;;;2.55;1.70;;;;;;;;;;5028202;28;20056;-62
2024/02/16 08:42:34;;;;;;;2.72;1.80;;;;;;;;;;5027797;28;20572;-63
2024/02/16 08:45:02;;;;;;;3.78;2.08;;;;;;;;;;5028181;28;20122;-64
2024/02/16 08:47:31;;;;;;;4.68;2.20;;;;;;;;;;5027459;28;20045;-62
2024/02/16 08:49:59;;;;;;;3.10;2.00;;;;;;;;;;5026606;28;20533;-63
2024/02/16 08:52:28;;;;;;;5.95;1.90;;;;;;;;;;5028076;28;20052;-64
2024/02/16 08:54:56;;;;;;;3.90;2.25;;;;;;;;;;5027745;28;20049;-63
2024/02/16 08:57:26;;;;;;;3.30;2.08;;;;;;;;;;5027535;28;20060;-64
2024/02/16 08:59:56;;;;;;;2.55;1.83;;;;;;;;;;5027161;28;20053;-66
2024/02/16 09:02:24;;;;;;;3.88;2.15;;;;;;;;;;5025857;28;20068;-63
2024/02/16 09:04:53;;;;;;;5.00;1.73;;;;;;;;;;5024722;28;20053;-62
2024/02/16 09:07:22;;;;;;;5.95;2.00;;;;;;;;;;5028082;28;20045;-63
2024/02/16 09:09:51;;;;;;;4.30;2.20;;;;;;;;;;5028537;28;20414;-63
2024/02/16 09:12:19;;;;;;;6.57;2.22;;;;;;;;;;5031538;28;20061;-64
2024/02/16 09:14:49;;;;;;;2.53;1.90;;;;;;;;;;5030245;28;20632;-63
2024/02/16 09:17:19;;;;;;;5.13;2.35;;;;;;;;;;5030444;28;20049;-66
2024/02/16 09:19:48;;;;;;;2.70;1.80;;;;;;;;;;5030308;28;20061;-63
2024/02/16 09:22:17;;;;;;;2.22;1.50;;;;;;;;;;5030519;28;20060;-64
2024/02/16 09:24:46;;;;;;;5.45;1.85;;;;;;;;;;5031367;28;20053;-63
2024/02/16 09:27:15;;;;;;;2.10;1.55;;;;;;;;;;5035604;28;20053;-65
2024/02/16 09:29:44;;;;;;;2.88;1.80;;;;;;;;;;5031122;28;20045;-63
2024/02/16 09:32:14;;;;;;;2.42;1.40;;;;;;;;;;5032170;28;20049;-63
2024/02/16 09:34:42;;;;;;;2.30;1.90;;;;;;;;;;5031899;28;20050;-65
2024/02/16 09:37:12;;;;;;;2.90;1.90;;;;;;;;;;5029705;28;20193;-66
2024/02/16 09:39:41;;;;;;;3.47;1.30;;;;;;;;;;5030202;28;20053;-63
2024/02/16 09:42:10;;;;;;;3.97;1.70;;;;;;;;;;5031468;28;20052;-64
2024/02/16 09:44:38;;;;;;;8.20;1.80;;;;;;;;;;5030297;28;20058;-63
2024/02/16 09:47:10;;;;;;;3.55;1.60;;;;;;;;;;5031387;28;20384;-64
2024/02/16 09:49:40;;;;;;;2.70;1.65;;;;;;;;;;5020738;28;20257;-64
2024/02/16 09:52:12;;;;;;;4.22;1.45;;;;;;;;;;5030742;28;20597;-64
2024/02/16 09:54:40;;;;;;;4.82;1.30;;;;;;;;;;5031682;28;20502;-64
2024/02/16 09:57:09;;;;;;;2.22;1.10;;;;;;;;;;5030790;28;20147;-63
2024/02/16 09:59:38;;;;;;;2.88;1.38;;;;;;;;;;5030776;28;20054;-64
2024/02/16 10:02:07;;;;;;;3.78;1.50;;;;;;;;;;5030920;28;20052;-66
2024/02/16 10:04:36;;;;;;;1.38;1.05;;;;;;;;;;5026502;28;20441;-65
2024/02/16 10:07:06;;;;;;;3.90;1.10;;;;;;;;;;5031915;28;20056;-63
2024/02/16 10:09:41;;;;;;;4.25;1.30;;;;;;;;;;5027582;28;20069;-64
2024/02/16 10:12:10;;;;;;;2.72;1.08;;;;;;;;;;5030881;28;20052;-66
2024/02/16 10:14:41;;;;;;;3.53;1.20;;;;;;;;;;5030435;28;20486;-64
2024/02/16 10:17:10;;;;;;;1.88;1.15;;;;;;;;;;5030079;28;20052;-63
2024/02/16 10:19:40;;;;;;;2.72;1.20;;;;;;;;;;5027504;28;20145;-62
2024/02/16 10:22:12;;;;;;;2.30;1.00;;;;;;;;;;5029695;28;20056;-65
2024/02/16 10:24:42;;;;;;;2.00;1.00;;;;;;;;;;5029151;28;20443;-64
2024/02/16 10:27:16;;;;;;;1.63;0.95;;;;;;;;;;5030976;28;20045;-65
2024/02/16 10:29:46;;;;;;;6.95;1.55;;;;;;;;;;5029217;28;20076;-64
2024/02/16 10:32:14;;;;;;;1.67;1.00;;;;;;;;;;5027032;28;20115;-64
2024/02/16 10:34:43;;;;;;;2.38;0.85;;;;;;;;;;5025581;28;20041;-67
2024/02/16 10:37:13;;;;;;;1.13;0.80;;;;;;;;;;5030065;28;20115;-66
2024/02/16 10:39:42;;;;;;;2.80;1.05;;;;;;;;;;5028335;28;20486;-64
2024/02/16 10:42:12;;;;;;;1.83;0.95;;;;;;;;;;5030925;28;20057;-64
2024/02/16 10:44:42;;;;;;;2.70;0.88;;;;;;;;;;5030712;28;20050;-64
2024/02/16 10:47:11;;;;;;;2.40;0.98;;;;;;;;;;5031325;28;20494;-64
2024/02/16 10:49:39;;;;;;;4.10;1.00;;;;;;;;;;5026870;28;20072;-64
2024/02/16 10:52:08;;;;;;;2.20;1.02;;;;;;;;;;5029723;28;20057;-68
2024/02/16 10:54:39;;;;;;;0.95;0.80;;;;;;;;;;5030048;28;20104;-64
2024/02/16 10:57:09;;;;;;;2.20;0.88;;;;;;;;;;5029358;28;20049;-68
2024/02/16 10:59:45;;;;;;;2.20;1.23;;;;;;;;;;5029480;28;20049;-66
2024/02/16 11:02:13;;;;;;;2.80;1.08;;;;;;;;;;5028547;28;20124;-68
2024/02/16 11:04:42;;;;;;;1.65;1.00;;;;;;;;;;5028896;28;20045;-64
2024/02/16 11:07:16;;;;;;;2.30;1.20;;;;;;;;;;5029574;28;20060;-65
2024/02/16 11:09:47;;;;;;;1.73;1.10;;;;;;;;;;5026593;28;20586;-65
2024/02/16 11:12:17;;;;;;;1.98;1.02;;;;;;;;;;5028836;28;20494;-68
2024/02/16 11:14:46;;;;;;;2.85;1.15;;;;;;;;;;5027847;28;20045;-64
2024/02/16 11:17:15;;;;;;;3.60;1.30;;;;;;;;;;5025174;28;20508;-64
2024/02/16 11:19:43;;;;;;;3.47;1.13;;;;;;;;;;5027926;28;20099;-64
2024/02/16 11:22:12;;;;;;;1.70;0.98;;;;;;;;;;5028672;28;20485;-65
2024/02/16 11:24:44;;;;;;;1.02;0.90;;;;;;;;;;5026835;28;20363;-69
2024/02/16 11:27:15;;;;;;;2.22;1.00;;;;;;;;;;5028397;28;20060;-64
2024/02/16 11:29:44;;;;;;;1.20;0.85;;;;;;;;;;5028320;28;20050;-65
2024/02/16 11:32:13;;;;;;;1.63;0.93;;;;;;;;;;5028750;28;20122;-65
2024/02/16 11:34:41;;;;;;;2.42;1.15;;;;;;;;;;5028361;28;20049;-68
2024/02/16 11:37:10;;;;;;;1.58;0.90;;;;;;;;;;5027324;28;20494;-63
2024/02/16 11:39:39;;;;;;;1.63;1.08;;;;;;;;;;5027143;28;20053;-64
2024/02/16 11:42:10;;;;;;;2.95;1.17;;;;;;;;;;5028079;28;20111;-64
2024/02/16 11:44:41;;;;;;;312.98;86.25;;;;;;;;;;5028581;28;20057;-66
2024/02/16 11:47:14;;;;;;;331.13;107.97;;;;;;;;;;5026468;28;20669;-68
2024/02/16 11:49:43;;;;;;;61.67;26.27;;;;;;;;;;5026423;28;20135;-67
2024/02/16 11:52:11;;;;;;;16.63;6.75;;;;;;;;;;5022215;28;20061;-66
2024/02/16 11:54:40;;;;;;;4.57;2.58;;;;;;;;;;5027946;28;20053;-67
2024/02/16 11:57:08;;;;;;;2.78;1.50;;;;;;;;;;5028959;28;20089;-66
2024/02/16 11:59:37;;;;;;;1.52;0.90;;;;;;;;;;5026710;28;21178;-68
2024/02/16 12:02:07;;;;;;;1.98;0.90;;;;;;;;;;5028386;28;20100;-68
2024/02/16 12:04:35;;;;;;;1.60;0.95;;;;;;;;;;5027476;28;20045;-67
2024/02/16 12:07:18;;;;;;;1.95;0.95;;;;;;;;;;5027507;28;20057;-67
2024/02/16 12:09:56;;;;;;;1.02;0.93;;;;;;;;;;5027133;28;20519;-67
2024/02/16 12:12:24;;;;;;;1.25;0.95;;;;;;;;;;5027743;28;20333;-67
2024/02/16 12:14:54;;;;;;;3.15;1.23;;;;;;;;;;5021380;28;20390;-67
2024/02/16 12:17:24;;;;;;;1.10;0.90;;;;;;;;;;5025407;28;20068;-67
2024/02/16 12:19:53;;;;;;;5.00;1.13;;;;;;;;;;5026233;28;20060;-66
2024/02/16 12:22:22;;;;;;;5.55;1.33;;;;;;;;;;5026693;28;20085;-69
2024/02/16 12:24:52;;;;;;;2.85;1.45;;;;;;;;;;5027417;28;20436;-68
2024/02/16 12:27:20;;;;;;;1.58;0.95;;;;;;;;;;5028701;28;20096;-66
2024/02/16 12:29:49;;;;;;;1.58;0.90;;;;;;;;;;5028224;28;20495;-66
2024/02/16 12:32:19;;;;;;;2.92;0.93;;;;;;;;;;5027907;28;20053;-67
2024/02/16 12:34:51;;;;;;;2.15;1.00;;;;;;;;;;5028441;28;20128;-69
2024/02/16 12:37:19;;;;;;;1.38;1.02;;;;;;;;;;5027555;28;20072;-70
2024/02/16 12:39:48;;;;;;;0.82;0.80;;;;;;;;;;5027886;28;20483;-68
2024/02/16 12:42:17;;;;;;;1.50;1.15;;;;;;;;;;5027963;28;20057;-67
2024/02/16 12:44:45;;;;;;;2.83;0.75;;;;;;;;;;5031257;28;20053;-66
2024/02/16 12:47:14;;;;;;;1.08;0.77;;;;;;;;;;5030736;28;20060;-69
2024/02/16 12:49:45;;;;;;;3.97;1.30;;;;;;;;;;5028522;28;20054;-68
2024/02/16 12:52:22;;;;;;;2.45;1.08;;;;;;;;;;5031314;28;20053;-66
2024/02/16 12:54:51;;;;;;;1.58;0.82;;;;;;;;;;5028570;28;20133;-66
2024/02/16 12:57:19;;;;;;;3.05;1.02;;;;;;;;;;5031503;28;20564;-66
2024/02/16 12:59:49;;;;;;;3.25;1.20;;;;;;;;;;5031992;28;20049;-68
2024/02/16 13:02:17;;;;;;;1.70;1.15;;;;;;;;;;5032114;28;20050;-66
2024/02/16 13:04:45;;;;;;;1.67;1.20;;;;;;;;;;5028759;28;20207;-66
2024/02/16 13:07:15;;;;;;;2.63;1.23;;;;;;;;;;5030905;28;20431;-66
2024/02/16 13:09:45;;;;;;;1.27;1.10;;;;;;;;;;5030769;28;20081;-65
2024/02/16 13:12:13;;;;;;;1.83;0.93;;;;;;;;;;5033165;28;20616;-66
2024/02/16 13:14:45;;;;;;;1.20;0.80;;;;;;;;;;5023764;28;20055;-68
2024/02/16 13:17:13;;;;;;;1.55;0.82;;;;;;;;;;5028987;28;20052;-68
2024/02/16 13:19:42;;;;;;;1.75;0.90;;;;;;;;;;5029282;28;20041;-65
2024/02/16 13:22:10;;;;;;;2.13;1.10;;;;;;;;;;5029593;28;20150;-65
2024/02/16 13:24:41;;;;;;;2.08;1.20;;;;;;;;;;5029314;28;20045;-69
2024/02/16 13:27:10;;;;;;;1.38;1.10;;;;;;;;;;5028650;28;20469;-64
2024/02/16 13:29:38;;;;;;;1.58;1.02;;;;;;;;;;5031223;28;20049;-65
2024/02/16 13:32:07;;;;;;;3.92;1.10;;;;;;;;;;5030994;28;20056;-64
2024/02/16 13:34:35;;;;;;;1.48;1.20;;;;;;;;;;5031316;28;20099;-64
2024/02/16 13:37:04;;;;;;;2.53;1.10;;;;;;;;;;5032485;28;20120;-64
2024/02/16 13:39:32;;;;;;;3.10;1.15;;;;;;;;;;5028701;28;20075;-65
2024/02/16 13:42:02;;;;;;;2.63;1.13;;;;;;;;;;5031703;28;20051;-63
2024/02/16 13:44:31;;;;;;;1.40;1.20;;;;;;;;;;5031129;28;20140;-64
2024/02/16 13:46:59;;;;;;;2.28;1.27;;;;;;;;;;5030639;28;20471;-64
2024/02/16 13:49:28;;;;;;;2.25;1.25;;;;;;;;;;5029770;28;20069;-66
2024/02/16 13:51:58;;;;;;;2.05;1.33;;;;;;;;;;5028728;28;20037;-66
2024/02/16 13:54:27;;;;;;;1.33;0.85;;;;;;;;;;5017753;28;20046;-64
2024/02/16 13:56:55;;;;;;;3.55;1.35;;;;;;;;;;5031539;28;20081;-65
2024/02/16 13:59:25;;;;;;;5.50;1.10;;;;;;;;;;5030387;28;20048;-66
2024/02/16 14:01:54;;;;;;;3.75;1.05;;;;;;;;;;5028052;28;20384;-67
2024/02/16 14:04:23;;;;;;;2.20;1.20;;;;;;;;;;5033262;28;20127;-65
2024/02/16 14:06:52;;;;;;;2.88;1.20;;;;;;;;;;5030999;28;20057;-65
2024/02/16 14:09:21;;;;;;;3.30;1.15;;;;;;;;;;5030186;28;20107;-64
2024/02/16 14:12:00;;;;;;;4.40;1.30;;;;;;;;;;5034225;28;20046;-64
2024/02/16 14:14:30;;;;;;;2.22;1.30;;;;;;;;;;5026022;28;20049;-66
2024/02/16 14:17:05;;;;;;;4.03;0.88;;;;;;;;;;5025410;28;20053;-64
2024/02/16 14:19:37;;;;;;;1.88;0.90;;;;;;;;;;5029865;28;20053;-64
2024/02/16 14:22:07;;;;;;;1.58;0.98;;;;;;;;;;5028782;28;20061;-63
2024/02/16 14:24:35;;;;;;;3.70;1.15;;;;;;;;;;5029933;28;20050;-65
2024/02/16 14:27:04;;;;;;;3.97;1.15;;;;;;;;;;5029264;28;20042;-64
2024/02/16 14:29:34;;;;;;;4.47;1.27;;;;;;;;;;5030125;28;20551;-64
2024/02/16 14:32:03;;;;;;;4.90;1.10;;;;;;;;;;5031206;28;20076;-63
2024/02/16 14:34:31;;;;;;;3.63;1.33;;;;;;;;;;5030282;28;20666;-64
2024/02/16 14:37:00;;;;;;;2.92;1.20;;;;;;;;;;5026239;28;20056;-64
2024/02/16 14:39:29;;;;;;;3.20;1.05;;;;;;;;;;5029677;28;20042;-65
2024/02/16 14:41:57;;;;;;;2.97;0.95;;;;;;;;;;5030020;28;20041;-66
2024/02/16 14:44:25;;;;;;;2.40;1.00;;;;;;;;;;5023966;28;20490;-66
2024/02/16 14:46:56;;;;;;;2.97;1.25;;;;;;;;;;5028703;28;20053;-63
2024/02/16 14:49:26;;;;;;;2.03;1.60;;;;;;;;;;5027366;28;20049;-66
2024/02/16 14:51:55;;;;;;;1.52;1.08;;;;;;;;;;5027944;28;20438;-65
2024/02/16 14:54:25;;;;;;;2.17;1.38;;;;;;;;;;5027267;28;20404;-63